Time;durP1;ratioP1;P1;durP2;ratioP2;P2;SDS_P1;SDS_P2;PMS_P1;PMS_P2;Temp;Humidity;BMP_temperature;BMP_pressure;BME280_temperature;BME280_humidity;BME280_pressure;Samples;Min_cycle;Max_cycle;Signal;HPM_P1;HPM_P2
2021/11/13 00:00:41;;;;;;;46.55;23.75;;;12.20;99.90;;;;;;5061849;28;20048;-72
2021/11/13 00:03:45;;;;;;;46.20;25.23;;;12.10;99.90;;;;;;5063098;28;20043;-72
2021/11/13 00:06:50;;;;;;;49.38;26.95;;;12.10;99.90;;;;;;5067654;28;20364;-72
2021/11/13 00:09:54;;;;;;;42.17;25.05;;;12.10;99.90;;;;;;5055821;28;20379;-72
2021/11/13 00:13:00;;;;;;;37.90;23.25;;;12.00;99.90;;;;;;5068475;28;20040;-72
2021/11/13 00:16:05;;;;;;;41.10;24.33;;;12.00;99.90;;;;;;5066226;28;20386;-72
2021/11/13 00:19:10;;;;;;;43.22;25.58;;;11.90;99.90;;;;;;5063121;28;20044;-72
2021/11/13 00:22:14;;;;;;;47.97;25.48;;;11.90;99.90;;;;;;5059899;28;20040;-72
2021/11/13 00:25:18;;;;;;;43.28;23.73;;;11.90;99.90;;;;;;5065012;28;20052;-72
2021/11/13 00:28:22;;;;;;;39.67;23.60;;;11.80;99.90;;;;;;5063189;28;20055;-72
2021/11/13 00:31:27;;;;;;;47.35;27.05;;;11.70;99.90;;;;;;5057638;28;20044;-72
2021/11/13 00:34:31;;;;;;;62.63;29.42;;;11.70;99.90;;;;;;5063445;28;20039;-72
2021/11/13 00:37:35;;;;;;;52.72;28.00;;;11.50;99.90;;;;;;5062944;28;20505;-72
2021/11/13 00:40:39;;;;;;;54.22;28.45;;;11.40;99.90;;;;;;5058185;28;20453;-72
2021/11/13 00:43:43;;;;;;;53.10;28.48;;;11.30;99.90;;;;;;5067092;28;20048;-72
2021/11/13 00:46:47;;;;;;;59.70;31.27;;;11.20;99.90;;;;;;5054443;28;20391;-72
2021/11/13 00:49:51;;;;;;;58.92;31.88;;;11.10;99.90;;;;;;5060344;28;20502;-71
2021/11/13 00:52:55;;;;;;;60.53;32.13;;;11.10;99.90;;;;;;5061591;28;20048;-72
2021/11/13 00:56:00;;;;;;;56.08;30.10;;;11.10;99.90;;;;;;5059782;28;20043;-72
2021/11/13 00:59:05;;;;;;;56.65;30.10;;;11.00;99.90;;;;;;5058440;28;20044;-72
2021/11/13 01:02:09;;;;;;;57.88;30.35;;;11.00;99.90;;;;;;5054723;28;20031;-72
2021/11/13 01:05:14;;;;;;;65.20;31.73;;;10.90;99.90;;;;;;5063145;28;20490;-72
2021/11/13 01:08:18;;;;;;;60.35;30.98;;;10.90;99.90;;;;;;5058963;28;20036;-72
2021/11/13 01:11:22;;;;;;;49.97;28.05;;;10.90;99.90;;;;;;5060371;28;20067;-72
2021/11/13 01:14:28;;;;;;;46.63;26.27;;;10.90;99.90;;;;;;5053146;28;20044;-72
2021/11/13 01:17:32;;;;;;;44.35;25.67;;;10.90;99.90;;;;;;5059354;28;20047;-72
2021/11/13 01:20:37;;;;;;;43.03;25.00;;;11.00;99.90;;;;;;5061567;28;20035;-72
2021/11/13 01:23:43;;;;;;;42.33;24.52;;;11.10;99.90;;;;;;5054302;28;20040;-72
2021/11/13 01:26:49;;;;;;;52.97;26.98;;;11.10;99.90;;;;;;5067720;28;20044;-72
2021/11/13 01:29:54;;;;;;;47.63;25.88;;;11.00;99.90;;;;;;5059634;28;20044;-72
2021/11/13 01:33:03;;;;;;;46.80;26.48;;;10.90;99.90;;;;;;5059066;28;20073;-72
2021/11/13 01:36:08;;;;;;;46.35;27.33;;;10.90;99.90;;;;;;5053973;28;20047;-72
2021/11/13 01:39:14;;;;;;;56.60;28.60;;;10.80;99.90;;;;;;5057406;28;20035;-72
2021/11/13 01:42:25;;;;;;;56.20;30.23;;;10.80;99.90;;;;;;5061192;28;20448;-72
2021/11/13 01:45:29;;;;;;;53.67;29.10;;;10.80;99.90;;;;;;5061943;28;20645;-72
2021/11/13 01:48:33;;;;;;;54.17;29.73;;;10.70;99.90;;;;;;5059819;28;20048;-72
2021/11/13 01:51:38;;;;;;;60.03;30.70;;;10.70;99.90;;;;;;5056839;28;20043;-72
2021/11/13 01:54:43;;;;;;;60.88;31.63;;;10.70;99.90;;;;;;5058617;28;20407;-72
2021/11/13 01:57:49;;;;;;;56.70;29.30;;;10.70;99.90;;;;;;5064332;28;20051;-72
2021/11/13 02:00:56;;;;;;;50.38;28.38;;;10.70;99.90;;;;;;5060165;28;20039;-72
2021/11/13 02:04:01;;;;;;;51.60;28.17;;;10.70;99.90;;;;;;5063713;28;20052;-72
2021/11/13 02:07:06;;;;;;;54.17;28.67;;;10.60;99.90;;;;;;5069263;28;20052;-72
2021/11/13 02:10:11;;;;;;;53.08;28.67;;;10.60;99.90;;;;;;5053379;28;20039;-72
2021/11/13 02:13:16;;;;;;;51.50;28.98;;;10.50;99.90;;;;;;5061603;28;20044;-72
2021/11/13 02:16:20;;;;;;;45.60;27.33;;;10.50;99.90;;;;;;5058099;28;20040;-72
2021/11/13 02:19:24;;;;;;;47.33;27.13;;;10.60;99.90;;;;;;5056568;28;20151;-72
2021/11/13 02:22:33;;;;;;;48.03;27.30;;;10.60;99.90;;;;;;5058047;28;20040;-72
2021/11/13 02:25:39;;;;;;;51.45;27.75;;;10.50;99.90;;;;;;5065933;28;20047;-72
2021/11/13 02:28:43;;;;;;;62.58;29.05;;;10.60;99.90;;;;;;5060629;28;20055;-72
2021/11/13 02:31:48;;;;;;;60.55;31.38;;;10.60;99.90;;;;;;5062107;28;20391;-72
2021/11/13 02:34:53;;;;;;;59.35;31.25;;;10.60;99.90;;;;;;5068148;28;20063;-72
2021/11/13 02:37:58;;;;;;;54.17;30.95;;;10.60;99.90;;;;;;5070176;28;20048;-72
2021/11/13 02:41:06;;;;;;;50.13;29.83;;;10.50;99.90;;;;;;5067325;28;20055;-72
2021/11/13 02:44:11;;;;;;;61.83;32.10;;;10.30;99.90;;;;;;5063349;28;20047;-72
2021/11/13 02:47:16;;;;;;;58.10;31.45;;;10.30;99.90;;;;;;5063920;28;20071;-72
2021/11/13 02:50:20;;;;;;;58.28;30.13;;;10.20;99.90;;;;;;5061163;28;20383;-72
2021/11/13 02:53:26;;;;;;;49.83;28.45;;;10.20;99.90;;;;;;5066099;28;20383;-72
2021/11/13 02:56:34;;;;;;;53.75;30.67;;;10.20;99.90;;;;;;5063709;28;20048;-72
2021/11/13 02:59:45;;;;;;;53.05;28.75;;;10.20;99.90;;;;;;5066702;28;20052;-72
2021/11/13 03:02:50;;;;;;;;;;;10.10;99.90;;;;;;5063265;28;20044;-72
2021/11/13 03:05:57;;;;;;;56.72;29.33;;;10.10;99.90;;;;;;5070492;28;20310;-72
2021/11/13 03:09:01;;;;;;;58.95;30.20;;;10.10;99.90;;;;;;5062062;28;20055;-72
2021/11/13 03:12:06;;;;;;;55.58;30.98;;;10.10;99.90;;;;;;5063565;28;20045;-72
2021/11/13 03:15:14;;;;;;;65.00;31.55;;;10.10;99.90;;;;;;5060736;28;20043;-72
2021/11/13 03:18:19;;;;;;;55.72;30.48;;;10.10;99.90;;;;;;5064525;28;20063;-72
2021/11/13 03:21:23;;;;;;;57.42;29.17;;;10.00;99.90;;;;;;5069920;28;20039;-72
2021/11/13 03:24:29;;;;;;;156.30;32.30;;;9.90;99.90;;;;;;5061180;28;20044;-72
2021/11/13 03:27:34;;;;;;;117.35;27.40;;;10.00;99.90;;;;;;5063028;28;20384;-72
2021/11/13 03:30:39;;;;;;;59.33;28.23;;;9.90;99.90;;;;;;5066771;28;20509;-72
2021/11/13 03:33:44;;;;;;;265.38;39.42;;;9.90;99.90;;;;;;5067250;28;20511;-72
2021/11/13 03:36:48;;;;;;;102.53;32.70;;;9.80;99.90;;;;;;5058766;28;20052;-72
2021/11/13 03:39:51;;;;;;;82.35;39.03;;;9.70;99.90;;;;;;5063425;28;20059;-72
2021/11/13 03:42:56;;;;;;;81.63;37.53;;;9.70;99.90;;;;;;5067135;28;20526;-72
2021/11/13 03:46:00;;;;;;;60.22;32.17;;;9.70;99.90;;;;;;5062772;28;20052;-72
2021/11/13 03:49:04;;;;;;;140.95;36.80;;;9.70;99.90;;;;;;5063147;28;20039;-72
2021/11/13 03:52:08;;;;;;;111.25;36.25;;;9.80;99.90;;;;;;5052591;28;20044;-72
2021/11/13 03:55:12;;;;;;;64.15;31.23;;;9.80;99.90;;;;;;5060527;28;20036;-72
2021/11/13 03:58:17;;;;;;;58.95;31.73;;;9.80;99.90;;;;;;5063307;28;20382;-72
2021/11/13 04:01:21;;;;;;;105.32;32.72;;;9.80;99.90;;;;;;5061741;28;20043;-72
2021/11/13 04:04:25;;;;;;;76.80;30.17;;;9.90;99.90;;;;;;5060125;28;20043;-72
2021/11/13 04:07:29;;;;;;;56.67;27.73;;;9.80;99.90;;;;;;5060809;28;20036;-72
2021/11/13 04:10:33;;;;;;;53.42;27.80;;;9.70;99.90;;;;;;5060846;28;20042;-72
2021/11/13 04:13:37;;;;;;;47.55;25.77;;;9.70;99.90;;;;;;5063065;28;20039;-72
2021/11/13 04:16:41;;;;;;;51.58;26.27;;;9.80;99.90;;;;;;5067875;28;20047;-72
2021/11/13 04:19:45;;;;;;;44.53;24.88;;;9.80;99.90;;;;;;5057498;28;20503;-72
2021/11/13 04:22:50;;;;;;;44.50;26.90;;;9.80;99.90;;;;;;5068853;28;20055;-72
2021/11/13 04:25:55;;;;;;;52.15;27.35;;;9.80;99.90;;;;;;5061726;28;20044;-72
2021/11/13 04:29:00;;;;;;;51.40;26.90;;;9.70;99.90;;;;;;5067208;28;20055;-72
2021/11/13 04:32:04;;;;;;;50.90;26.58;;;9.70;99.90;;;;;;5065150;28;20036;-72
2021/11/13 04:35:24;;;;;;;51.90;26.40;;;9.70;99.90;;;;;;5061491;28;20032;-72
2021/11/13 04:38:30;;;;;;;53.85;27.25;;;9.60;99.90;;;;;;5061727;28;20059;-72
2021/11/13 04:41:35;;;;;;;48.65;24.20;;;9.60;99.90;;;;;;5061949;28;20044;-72
2021/11/13 04:44:40;;;;;;;51.03;27.23;;;9.60;99.90;;;;;;5061113;28;20245;-72
2021/11/13 04:47:45;;;;;;;47.88;26.20;;;9.60;99.90;;;;;;5064708;28;20063;-72
2021/11/13 04:50:49;;;;;;;45.17;25.40;;;9.60;99.90;;;;;;5060060;28;20040;-72
2021/11/13 04:53:53;;;;;;;45.20;23.55;;;9.60;99.90;;;;;;5064460;28;20044;-73
2021/11/13 04:56:57;;;;;;;44.92;23.55;;;9.60;99.90;;;;;;5068669;28;20043;-72
2021/11/13 05:00:07;;;;;;;42.35;23.40;;;9.60;99.90;;;;;;5068602;28;20039;-72
2021/11/13 05:03:11;;;;;;;44.83;23.48;;;9.70;99.90;;;;;;5056414;28;20399;-72
2021/11/13 05:06:15;;;;;;;44.03;24.40;;;9.60;99.90;;;;;;5061311;28;20044;-72
2021/11/13 05:09:19;;;;;;;52.00;24.00;;;9.40;99.90;;;;;;5063239;28;20545;-72
2021/11/13 05:12:23;;;;;;;73.57;24.25;;;9.30;99.90;;;;;;5056396;28;20379;-72
2021/11/13 05:15:29;;;;;;;184.20;26.35;;;9.10;99.90;;;;;;5051924;28;20368;-72
2021/11/13 05:18:33;;;;;;;271.58;27.70;;;9.00;99.90;;;;;;5058265;28;20048;-72
2021/11/13 05:21:38;;;;;;;85.50;22.73;;;8.90;99.90;;;;;;5065974;28;20043;-72
2021/11/13 05:24:42;;;;;;;36.95;19.85;;;8.90;99.90;;;;;;5058613;28;20423;-72
2021/11/13 05:27:47;;;;;;;120.53;24.10;;;8.90;99.90;;;;;;5061266;28;20106;-72
2021/11/13 05:30:51;;;;;;;48.97;20.17;;;8.80;99.90;;;;;;5061330;28;20039;-72
2021/11/13 05:33:56;;;;;;;76.82;21.60;;;8.90;99.90;;;;;;5060074;28;20063;-72
2021/11/13 05:37:00;;;;;;;115.75;25.55;;;8.90;99.90;;;;;;5058725;28;20067;-72
2021/11/13 05:40:07;;;;;;;310.63;31.35;;;9.00;99.90;;;;;;5061045;28;20040;-72
2021/11/13 05:43:12;;;;;;;206.43;27.05;;;9.10;99.90;;;;;;5061643;28;20039;-72
2021/11/13 05:46:16;;;;;;;180.80;31.30;;;9.20;99.90;;;;;;5055981;28;20390;-72
2021/11/13 05:49:21;;;;;;;58.75;26.17;;;9.20;99.90;;;;;;5056321;28;20040;-72
2021/11/13 05:52:27;;;;;;;49.90;25.33;;;9.30;99.90;;;;;;5061908;28;20510;-72
2021/11/13 05:55:31;;;;;;;45.20;24.63;;;9.40;99.90;;;;;;5060936;28;20422;-72
2021/11/13 05:58:35;;;;;;;43.85;23.05;;;9.50;99.90;;;;;;5057672;28;20051;-72
2021/11/13 06:01:39;;;;;;;45.67;25.52;;;9.50;99.90;;;;;;5062004;28;20410;-72
2021/11/13 06:04:43;;;;;;;45.70;24.80;;;9.60;99.90;;;;;;5065497;28;20051;-72
2021/11/13 06:07:49;;;;;;;42.90;24.13;;;9.50;99.90;;;;;;5070580;28;20051;-72
2021/11/13 06:10:53;;;;;;;41.92;22.45;;;9.50;99.90;;;;;;5072056;28;20039;-72
2021/11/13 06:13:57;;;;;;;319.05;34.47;;;9.60;99.90;;;;;;5066905;28;20621;-72
2021/11/13 06:17:02;;;;;;;162.52;27.38;;;9.30;99.90;;;;;;5065700;28;20695;-72
2021/11/13 06:20:08;;;;;;;41.88;22.52;;;9.30;99.90;;;;;;5067785;28;20042;-72
2021/11/13 06:23:13;;;;;;;51.35;22.55;;;9.40;99.90;;;;;;5068290;28;20428;-72
2021/11/13 06:26:18;;;;;;;278.67;31.27;;;9.50;99.90;;;;;;5064397;28;20047;-72
2021/11/13 06:29:22;;;;;;;41.25;21.77;;;9.50;99.90;;;;;;5065798;28;20056;-72
2021/11/13 06:32:26;;;;;;;38.97;20.15;;;9.50;99.90;;;;;;5068266;28;20067;-72
2021/11/13 06:35:30;;;;;;;30.58;18.63;;;9.50;99.90;;;;;;5065073;28;20119;-72
2021/11/13 06:38:35;;;;;;;35.20;19.80;;;9.60;99.90;;;;;;5071276;28;20047;-72
2021/11/13 06:41:38;;;;;;;37.63;21.77;;;9.70;99.90;;;;;;5069371;28;20063;-72
2021/11/13 06:44:42;;;;;;;48.78;21.27;;;9.70;99.90;;;;;;5064405;28;20341;-72
2021/11/13 06:47:46;;;;;;;219.52;26.63;;;9.60;99.90;;;;;;5067346;28;20506;-72
2021/11/13 06:50:52;;;;;;;26.45;16.77;;;9.60;99.90;;;;;;5071633;28;20372;-72
2021/11/13 06:53:56;;;;;;;38.35;20.92;;;9.60;99.90;;;;;;5066084;28;20048;-72
2021/11/13 06:57:00;;;;;;;113.93;24.23;;;9.70;99.90;;;;;;5071114;28;20048;-72
2021/11/13 07:00:07;;;;;;;34.95;20.30;;;9.90;99.90;;;;;;5060484;28;20051;-72
2021/11/13 07:03:11;;;;;;;35.17;18.70;;;10.00;99.90;;;;;;5062298;28;20044;-72
2021/11/13 07:06:14;;;;;;;33.30;20.00;;;10.10;99.90;;;;;;5067719;28;20051;-72
2021/11/13 07:09:18;;;;;;;27.65;16.85;;;10.30;99.90;;;;;;5068691;28;20111;-72
2021/11/13 07:12:22;;;;;;;27.27;16.50;;;10.60;99.90;;;;;;5060641;28;20047;-72
2021/11/13 07:15:31;;;;;;;24.70;15.50;;;10.80;99.90;;;;;;5062174;28;20036;-72
2021/11/13 07:18:35;;;;;;;26.42;16.63;;;11.00;99.90;;;;;;5063218;28;20042;-72
2021/11/13 07:21:40;;;;;;;25.35;15.07;;;11.20;99.90;;;;;;5068220;28;20399;-72
2021/11/13 07:24:44;;;;;;;27.02;16.30;;;11.30;99.90;;;;;;5060817;28;20052;-72
2021/11/13 07:27:49;;;;;;;36.13;19.30;;;11.20;99.90;;;;;;5060023;28;20036;-73
2021/11/13 07:30:53;;;;;;;29.25;16.15;;;11.20;99.90;;;;;;5062285;28;20052;-72
2021/11/13 07:33:58;;;;;;;28.88;17.58;;;11.20;99.90;;;;;;5062915;28;20487;-72
2021/11/13 07:37:03;;;;;;;26.15;16.00;;;11.20;99.90;;;;;;5068942;28;20032;-72
2021/11/13 07:40:10;;;;;;;26.45;16.77;;;11.30;99.90;;;;;;5065452;28;20059;-72
2021/11/13 07:43:13;;;;;;;32.75;16.67;;;11.20;99.90;;;;;;5060401;28;20490;-73
2021/11/13 07:46:18;;;;;;;31.08;18.42;;;11.30;99.90;;;;;;5065292;28;20055;-72
2021/11/13 07:49:22;;;;;;;31.42;18.48;;;10.90;99.90;;;;;;5060021;28;20044;-72
2021/11/13 07:52:26;;;;;;;27.10;17.63;;;10.90;99.90;;;;;;5064427;28;20048;-72
2021/11/13 07:55:30;;;;;;;31.90;17.48;;;11.20;99.90;;;;;;5060070;28;20052;-72
2021/11/13 07:58:34;;;;;;;28.77;16.42;;;11.50;99.90;;;;;;5059933;28;20047;-72
2021/11/13 08:01:38;;;;;;;30.38;18.02;;;11.20;99.90;;;;;;5064204;28;20075;-72
2021/11/13 08:04:42;;;;;;;24.48;15.18;;;11.00;99.90;;;;;;5067778;28;20051;-72
2021/11/13 08:07:46;;;;;;;24.42;15.13;;;11.20;99.90;;;;;;5057989;28;20052;-72
2021/11/13 08:10:50;;;;;;;24.15;14.13;;;11.60;99.90;;;;;;5069445;28;20391;-72
2021/11/13 08:13:54;;;;;;;24.08;14.95;;;11.20;99.90;;;;;;5061711;28;20051;-72
2021/11/13 08:16:58;;;;;;;20.67;13.38;;;11.10;99.90;;;;;;5067004;28;20052;-72
2021/11/13 08:20:04;;;;;;;20.08;12.15;;;11.80;99.90;;;;;;5061493;28;20185;-72
2021/11/13 08:23:09;;;;;;;17.45;12.40;;;12.40;99.90;;;;;;5063413;28;20063;-72
2021/11/13 08:26:13;;;;;;;20.20;13.43;;;12.90;99.90;;;;;;5060725;28;20047;-72
2021/11/13 08:29:18;;;;;;;25.65;15.27;;;11.80;99.90;;;;;;5057522;28;20059;-72
2021/11/13 08:32:21;;;;;;;23.15;15.55;;;11.70;99.90;;;;;;5064946;28;20048;-72
2021/11/13 08:35:26;;;;;;;24.50;15.45;;;11.60;99.90;;;;;;5061263;28;20391;-72
2021/11/13 08:38:30;;;;;;;26.67;16.42;;;12.00;99.90;;;;;;5059112;28;20040;-72
2021/11/13 08:41:35;;;;;;;23.40;13.30;;;12.30;99.90;;;;;;5060950;28;20051;-72
2021/11/13 08:44:42;;;;;;;34.55;15.95;;;13.00;99.90;;;;;;5065587;28;20039;-72
2021/11/13 08:47:47;;;;;;;18.00;13.02;;;14.00;99.90;;;;;;5058725;28;20058;-72
2021/11/13 08:50:51;;;;;;;20.88;13.65;;;15.10;99.90;;;;;;5066459;28;20313;-72
2021/11/13 08:53:56;;;;;;;19.48;12.05;;;16.30;99.90;;;;;;5066670;28;20391;-72
2021/11/13 08:57:03;;;;;;;17.75;12.23;;;17.10;99.90;;;;;;5065356;28;20064;-73
2021/11/13 09:00:10;;;;;;;20.98;13.50;;;17.40;99.90;;;;;;5055313;28;20040;-72
2021/11/13 09:03:20;;;;;;;24.30;14.32;;;17.30;99.90;;;;;;5056194;28;20039;-72
2021/11/13 09:06:29;;;;;;;22.40;13.30;;;17.70;99.90;;;;;;5061515;28;20031;-72
2021/11/13 09:09:37;;;;;;;17.95;13.05;;;18.10;99.90;;;;;;5058292;28;20048;-72
2021/11/13 09:12:40;;;;;;;19.58;13.63;;;18.10;99.90;;;;;;5058330;28;20048;-72
2021/11/13 09:15:44;;;;;;;26.42;14.23;;;19.60;99.90;;;;;;5058642;28;20039;-72
2021/11/13 09:18:49;;;;;;;18.95;13.70;;;21.20;99.90;;;;;;5064123;28;20043;-73
2021/11/13 09:21:54;;;;;;;18.02;14.02;;;23.80;99.90;;;;;;5059556;28;20040;-73
2021/11/13 09:24:58;;;;;;;17.17;12.57;;;24.30;99.90;;;;;;5058139;28;20060;-73
2021/11/13 09:28:02;;;;;;;19.52;12.77;;;25.60;99.40;;;;;;5060579;28;20051;-73
2021/11/13 09:31:08;;;;;;;14.63;12.10;;;26.10;98.20;;;;;;5058461;28;20594;-73
2021/11/13 09:34:18;;;;;;;16.13;11.00;;;26.50;97.30;;;;;;5054632;28;20035;-73
2021/11/13 09:37:23;;;;;;;13.43;9.38;;;27.40;94.80;;;;;;5059169;28;20039;-73
2021/11/13 09:40:29;;;;;;;11.13;8.63;;;31.00;92.50;;;;;;5062458;28;20044;-73
2021/11/13 09:43:34;;;;;;;11.80;8.38;;;31.00;87.20;;;;;;5058282;28;20040;-73
2021/11/13 09:46:41;;;;;;;11.30;8.55;;;29.90;87.70;;;;;;5058276;28;20514;-73
2021/11/13 09:49:45;;;;;;;15.13;8.40;;;28.90;88.70;;;;;;5057993;28;20056;-73
2021/11/13 09:52:50;;;;;;;12.82;8.65;;;29.70;88.30;;;;;;5064405;28;20051;-71
2021/11/13 09:55:55;;;;;;;12.77;8.35;;;31.40;86.10;;;;;;5066545;28;20055;-72
2021/11/13 09:59:00;;;;;;;10.18;8.68;;;30.70;84.10;;;;;;5059228;28;20553;-73
2021/11/13 10:02:04;;;;;;;13.55;8.77;;;29.10;86.10;;;;;;5059252;28;20036;-71
2021/11/13 10:05:10;;;;;;;14.18;10.15;;;29.40;84.00;;;;;;5057837;28;20044;-73
2021/11/13 10:08:14;;;;;;;12.18;9.77;;;27.20;85.20;;;;;;5056281;28;20040;-73
2021/11/13 10:11:22;;;;;;;11.45;9.23;;;28.10;88.20;;;;;;5060731;28;20391;-73
2021/11/13 10:14:37;;;;;;;13.93;9.70;;;29.20;85.80;;;;;;5057674;28;20609;-73
2021/11/13 10:17:41;;;;;;;10.90;8.63;;;27.60;85.40;;;;;;5061398;28;20063;-73
2021/11/13 10:20:57;;;;;;;12.73;9.20;;;28.20;88.00;;;;;;5059747;28;20120;-73
2021/11/13 10:24:14;;;;;;;13.55;9.77;;;29.80;84.70;;;;;;5058890;28;20044;-71
2021/11/13 10:27:19;;;;;;;14.02;10.85;;;28.10;85.70;;;;;;5062969;28;20055;-73
2021/11/13 10:30:23;;;;;;;15.63;10.55;;;26.50;87.30;;;;;;5058639;28;20364;-73
2021/11/13 10:33:31;;;;;;;12.82;10.00;;;25.20;90.40;;;;;;5062957;28;20039;-72
2021/11/13 10:36:43;;;;;;;19.48;11.95;;;24.40;91.80;;;;;;5057487;28;20051;-73
2021/11/13 10:39:48;;;;;;;16.60;10.70;;;23.40;93.00;;;;;;5057573;28;20044;-72
2021/11/13 10:43:03;;;;;;;26.80;15.65;;;23.80;92.70;;;;;;5060139;28;20040;-72
2021/11/13 10:46:11;;;;;;;33.40;18.63;;;24.40;92.40;;;;;;5057634;28;20056;-72
2021/11/13 10:49:16;;;;;;;21.88;13.43;;;23.90;92.50;;;;;;5054402;28;20047;-72
2021/11/13 10:52:20;;;;;;;15.02;10.55;;;24.60;92.50;;;;;;5060949;28;20039;-72
2021/11/13 10:55:25;;;;;;;14.88;10.50;;;25.80;91.60;;;;;;5066606;28;20505;-72
2021/11/13 10:58:36;;;;;;;12.32;9.90;;;27.20;90.20;;;;;;5059948;28;20044;-72
2021/11/13 11:01:48;;;;;;;13.60;10.23;;;27.00;90.20;;;;;;5065222;28;20501;-72
2021/11/13 11:04:53;;;;;;;11.68;8.32;;;27.70;90.80;;;;;;5068910;28;20346;-73
2021/11/13 11:07:57;;;;;;;13.95;7.90;;;31.50;86.40;;;;;;5063211;28;20319;-74
2021/11/13 11:11:02;;;;;;;12.70;8.57;;;34.50;83.10;;;;;;5070302;28;20056;-73
2021/11/13 11:14:11;;;;;;;12.70;7.10;;;34.90;78.60;;;;;;5060713;28;20040;-73
2021/11/13 11:17:22;;;;;;;11.27;7.10;;;34.10;78.50;;;;;;5060739;28;20048;-73
2021/11/13 11:20:26;;;;;;;10.00;5.65;;;33.10;80.00;;;;;;5059958;28;20506;-73
2021/11/13 11:23:30;;;;;;;9.63;6.00;;;30.70;81.30;;;;;;5064510;28;20054;-72
2021/11/13 11:26:36;;;;;;;15.93;7.78;;;28.30;84.60;;;;;;5060883;28;20047;-72
2021/11/13 11:29:55;;;;;;;9.50;6.50;;;28.10;86.80;;;;;;5059117;28;20272;-72
2021/11/13 11:33:01;;;;;;;10.30;6.07;;;29.60;85.00;;;;;;5051940;28;20518;-72
2021/11/13 11:36:36;;;;;;;14.75;7.70;;;30.00;83.80;;;;;;5061501;28;20041;-72
2021/11/13 11:39:41;;;;;;;13.57;8.32;;;28.50;84.00;;;;;;5061034;28;20391;-73
2021/11/13 11:42:48;;;;;;;20.58;9.95;;;31.10;82.10;;;;;;5063446;28;20039;-74
2021/11/13 11:45:52;;;;;;;11.70;7.35;;;33.00;80.90;;;;;;5069750;28;20039;-74
2021/11/13 11:48:57;;;;;;;13.07;6.32;;;33.40;78.90;;;;;;5062829;28;20040;-72
2021/11/13 11:52:02;;;;;;;19.35;9.50;;;27.70;82.60;;;;;;5063737;28;20051;-73
2021/11/13 11:55:07;;;;;;;60.97;26.92;;;27.10;87.00;;;;;;5064867;28;20036;-73
2021/11/13 11:58:16;;;;;;;24.08;11.63;;;27.50;87.30;;;;;;5056328;28;20035;-73
2021/11/13 12:01:32;;;;;;;5.72;4.05;;;26.90;87.90;;;;;;5062520;28;20059;-73
2021/11/13 12:04:37;;;;;;;22.65;10.65;;;27.60;86.30;;;;;;5067455;28;20043;-73
2021/11/13 12:07:42;;;;;;;5.47;3.75;;;29.40;84.30;;;;;;5060160;28;20063;-73
2021/11/13 12:10:47;;;;;;;6.15;3.60;;;31.30;80.60;;;;;;5058466;28;20059;-74
2021/11/13 12:13:52;;;;;;;9.30;6.00;;;32.60;78.90;;;;;;5062119;28;20063;-73
2021/11/13 12:17:25;;;;;;;6.57;4.03;;;28.30;80.00;;;;;;5066278;28;20054;-74
2021/11/13 12:20:32;;;;;;;12.73;7.30;;;29.80;81.50;;;;;;5059712;28;20111;-73
2021/11/13 12:23:39;;;;;;;5.97;4.53;;;29.10;82.20;;;;;;5064170;28;20496;-73
2021/11/13 12:26:58;;;;;;;8.85;4.78;;;30.40;80.90;;;;;;5059820;28;20103;-73
2021/11/13 12:30:02;;;;;;;8.38;3.95;;;28.30;80.80;;;;;;5061665;28;20036;-73
2021/11/13 12:33:28;;;;;;;9.63;5.53;;;25.40;86.90;;;;;;5061435;28;20044;-73
2021/11/13 12:36:54;;;;;;;7.50;4.55;;;27.20;85.60;;;;;;5059173;28;20510;-73
2021/11/13 12:39:59;;;;;;;5.32;2.88;;;28.60;83.90;;;;;;5060574;28;20051;-73
2021/11/13 12:43:04;;;;;;;7.18;3.00;;;30.50;79.70;;;;;;5059619;28;20048;-73
2021/11/13 12:46:27;;;;;;;4.18;2.83;;;31.90;77.70;;;;;;5059041;28;20040;-73
2021/11/13 12:49:35;;;;;;;8.07;2.78;;;31.30;77.70;;;;;;5058127;28;20402;-73
2021/11/13 12:52:51;;;;;;;6.68;3.22;;;31.10;77.70;;;;;;5063532;28;20052;-73
2021/11/13 12:55:56;;;;;;;8.90;4.00;;;29.70;79.80;;;;;;5069120;28;20206;-73
2021/11/13 12:59:00;;;;;;;8.75;3.92;;;26.50;82.50;;;;;;5059652;28;20055;-73
2021/11/13 13:02:17;;;;;;;5.78;2.85;;;24.70;86.80;;;;;;5059107;28;20036;-73
2021/11/13 13:05:22;;;;;;;7.03;2.50;;;25.20;87.50;;;;;;5058800;28;20039;-73
2021/11/13 13:08:27;;;;;;;7.60;3.15;;;27.30;83.90;;;;;;5064744;28;20498;-73
2021/11/13 13:11:31;;;;;;;10.02;3.65;;;26.40;83.20;;;;;;5063357;28;20529;-72
2021/11/13 13:14:36;;;;;;;15.98;5.75;;;24.90;86.10;;;;;;5057729;28;20052;-72
2021/11/13 13:17:43;;;;;;;15.32;5.68;;;24.00;89.00;;;;;;5058706;28;20044;-72
2021/11/13 13:20:48;;;;;;;208.90;79.72;;;23.90;89.80;;;;;;5060490;28;20051;-72
2021/11/13 13:23:52;;;;;;;220.75;78.32;;;22.70;90.70;;;;;;5060717;28;20383;-72
2021/11/13 13:27:10;;;;;;;60.05;22.05;;;22.30;91.80;;;;;;5060837;28;20048;-72
2021/11/13 13:30:15;;;;;;;98.28;34.88;;;21.30;92.50;;;;;;5057765;28;20043;-72
2021/11/13 13:33:24;;;;;;;70.15;23.20;;;19.90;95.10;;;;;;5062484;28;20043;-72
2021/11/13 13:36:29;;;;;;;246.98;102.63;;;19.10;96.50;;;;;;5058213;28;20064;-72
2021/11/13 13:39:34;;;;;;;184.50;76.30;;;18.80;97.60;;;;;;5057811;28;20495;-72
2021/11/13 13:42:38;;;;;;;246.35;92.82;;;18.60;98.30;;;;;;5066460;28;20043;-72
2021/11/13 13:45:54;;;;;;;519.75;197.38;;;18.50;98.90;;;;;;5064776;28;20039;-73
2021/11/13 13:49:04;;;;;;;325.35;122.95;;;18.40;99.30;;;;;;5059903;28;20383;-72
2021/11/13 13:52:10;;;;;;;535.42;206.63;;;18.30;99.80;;;;;;5061349;28;20480;-72
2021/11/13 13:55:18;;;;;;;636.10;262.23;;;18.20;99.90;;;;;;5061155;28;20036;-72
2021/11/13 13:58:26;;;;;;;365.15;128.88;;;18.30;99.90;;;;;;5055184;28;20029;-72
2021/11/13 14:01:33;;;;;;;127.18;46.42;;;18.50;99.90;;;;;;5061174;28;20383;-72
2021/11/13 14:04:41;;;;;;;93.65;34.65;;;18.60;99.90;;;;;;5065483;28;20048;-72
2021/11/13 14:07:46;;;;;;;43.85;17.85;;;18.70;99.90;;;;;;5063345;28;20407;-72
2021/11/13 14:10:52;;;;;;;27.13;11.75;;;18.80;99.90;;;;;;5055679;28;20051;-72
2021/11/13 14:13:57;;;;;;;21.98;9.60;;;18.80;99.90;;;;;;5059120;28;20051;-73
2021/11/13 14:17:02;;;;;;;32.78;12.55;;;18.80;99.90;;;;;;5066148;28;20047;-73
2021/11/13 14:20:21;;;;;;;57.10;22.52;;;18.80;99.90;;;;;;5060568;28;20043;-72
2021/11/13 14:23:31;;;;;;;904.20;456.38;;;18.50;99.90;;;;;;5060808;28;20043;-72
2021/11/13 14:26:36;;;;;;;486.40;184.60;;;18.10;99.90;;;;;;5058221;28;20041;-72
2021/11/13 14:29:43;;;;;;;195.43;75.57;;;18.00;99.90;;;;;;5065678;28;20044;-72
2021/11/13 14:32:57;;;;;;;38.45;13.30;;;17.80;99.90;;;;;;5061906;28;20047;-72
2021/11/13 14:36:04;;;;;;;117.82;34.20;;;17.60;99.90;;;;;;5062076;28;20055;-72
2021/11/13 14:39:18;;;;;;;180.13;52.78;;;17.30;99.90;;;;;;5061126;28;20494;-72
2021/11/13 14:42:24;;;;;;;118.22;51.83;;;16.80;99.90;;;;;;5066773;28;20059;-72
2021/11/13 14:45:36;;;;;;;52.88;23.77;;;16.70;99.90;;;;;;5066000;28;20055;-72
2021/11/13 14:48:42;;;;;;;21.98;9.90;;;16.50;99.90;;;;;;5060988;28;20538;-72
2021/11/13 14:51:51;;;;;;;17.42;7.85;;;16.30;99.90;;;;;;5062173;28;20040;-72
2021/11/13 14:54:59;;;;;;;14.02;6.35;;;16.20;99.90;;;;;;5064483;28;20048;-72
2021/11/13 14:58:06;;;;;;;19.17;6.30;;;16.10;99.90;;;;;;5063812;28;20035;-72
2021/11/13 15:01:23;;;;;;;11.80;6.47;;;16.00;99.90;;;;;;5064516;28;20042;-72
2021/11/13 15:04:31;;;;;;;15.50;6.65;;;16.10;99.90;;;;;;5066448;28;20067;-72
2021/11/13 15:07:38;;;;;;;12.48;6.72;;;16.10;99.90;;;;;;5061666;28;20048;-72
2021/11/13 15:10:43;;;;;;;14.30;7.97;;;16.20;99.90;;;;;;5059025;28;20063;-72
2021/11/13 15:13:54;;;;;;;29.73;9.20;;;16.10;99.90;;;;;;5063368;28;20051;-71
2021/11/13 15:17:06;;;;;;;16.42;9.18;;;16.00;99.90;;;;;;5068055;28;20051;-72
2021/11/13 15:20:22;;;;;;;10.05;5.10;;;15.80;99.90;;;;;;5057833;28;20054;-71
2021/11/13 15:23:27;;;;;;;4.25;2.78;;;15.30;99.90;;;;;;5063718;28;20051;-71
2021/11/13 15:26:33;;;;;;;4.70;2.10;;;15.20;99.90;;;;;;5060802;28;20407;-71
2021/11/13 15:29:42;;;;;;;3.22;1.80;;;15.00;99.90;;;;;;5059804;28;20111;-71
2021/11/13 15:32:49;;;;;;;10.18;2.38;;;14.60;99.90;;;;;;5060705;28;20039;-72
2021/11/13 15:35:58;;;;;;;3.97;2.33;;;14.30;99.90;;;;;;5061682;28;20056;-72
2021/11/13 15:39:09;;;;;;;28.50;16.25;;;14.20;99.90;;;;;;5065842;28;20052;-72
2021/11/13 15:42:19;;;;;;;9.73;4.40;;;14.30;99.90;;;;;;5059067;28;20036;-72
2021/11/13 15:45:27;;;;;;;10.45;6.30;;;14.30;99.90;;;;;;5063955;28;20502;-72
2021/11/13 15:48:42;;;;;;;11.38;5.20;;;14.40;99.90;;;;;;5059766;28;20048;-72